createdAt,value
2019-04-28T13:12:59.780Z,16.70
2019-04-28T13:15:30.476Z,15.20
2019-04-28T13:18:00.524Z,15.60
2019-04-28T13:20:31.075Z,19.77
2019-04-28T13:23:01.648Z,17.00
2019-04-28T13:25:32.488Z,14.10
2019-04-28T13:28:05.920Z,15.50
2019-04-28T13:30:36.677Z,17.33
2019-04-28T13:33:08.645Z,19.80
2019-04-28T13:35:38.923Z,16.23
2019-04-28T13:38:18.597Z,21.57
2019-04-28T13:40:48.245Z,16.90
2019-04-28T13:43:18.964Z,13.83
2019-04-28T13:45:49.009Z,17.30
2019-04-28T13:48:19.689Z,14.50
2019-04-28T13:50:50.166Z,15.30
2019-04-28T13:53:20.886Z,14.93
2019-04-28T13:56:00.298Z,12.80
2019-04-28T13:58:41.442Z,16.30
2019-04-28T14:01:27.397Z,11.63
2019-04-28T14:04:26.807Z,10.00
2019-04-28T14:07:01.811Z,8.00
2019-04-28T14:09:31.860Z,7.13
2019-04-28T14:12:02.360Z,8.97
2019-04-28T14:14:32.672Z,10.20
2019-04-28T14:17:02.852Z,9.33
2019-04-28T14:19:33.251Z,7.50
2019-04-28T14:22:04.948Z,9.57
2019-04-28T14:24:35.356Z,10.13
2019-04-28T14:27:05.492Z,10.80
2019-04-28T14:29:40.627Z,8.80
2019-04-28T14:32:11.007Z,6.40
2019-04-28T14:34:41.568Z,6.90
2019-04-28T14:37:12.010Z,8.40
2019-04-28T14:39:42.653Z,11.93
2019-04-28T14:42:12.809Z,7.70
2019-04-28T14:44:42.876Z,6.97
2019-04-28T14:47:13.705Z,13.00
2019-04-28T14:49:43.651Z,12.00
2019-04-28T14:52:13.982Z,12.40
2019-04-28T14:54:44.141Z,13.63
2019-04-28T14:57:14.256Z,12.03
2019-04-28T14:59:44.607Z,11.20
2019-04-28T15:02:40.509Z,13.20
2019-04-28T15:05:39.482Z,12.03
2019-04-28T15:08:27.882Z,14.80
2019-04-28T15:11:09.876Z,11.03
2019-04-28T15:13:40.067Z,14.47
2019-04-28T15:16:10.496Z,10.37
2019-04-28T15:18:41.508Z,9.13
2019-04-28T15:21:11.484Z,11.97
2019-04-28T15:23:41.568Z,13.00
2019-04-28T15:26:12.894Z,11.70
2019-04-28T15:28:42.961Z,17.27
2019-04-28T15:31:13.468Z,14.73
2019-04-28T15:33:43.586Z,12.60
2019-04-28T15:36:13.818Z,12.83
2019-04-28T15:38:43.981Z,10.23
2019-04-28T15:41:21.532Z,13.83
2019-04-28T15:43:45.931Z,15.67
2019-04-28T15:46:16.170Z,12.20
2019-04-28T15:48:47.234Z,15.83
2019-04-28T15:51:19.710Z,10.83
2019-04-28T15:53:49.743Z,9.40
2019-04-28T15:56:35.304Z,10.50
2019-04-28T15:59:06.828Z,12.50
2019-04-28T16:01:37.109Z,8.87
2019-04-28T16:04:08.387Z,9.03
2019-04-28T16:06:39.401Z,13.60
2019-04-28T16:09:14.165Z,12.47
2019-04-28T16:11:45.170Z,15.23
2019-04-28T16:14:18.594Z,12.53
2019-04-28T16:16:51.544Z,13.60
2019-04-28T16:19:23.238Z,14.77
2019-04-28T16:21:55.503Z,12.40
2019-04-28T16:24:28.175Z,11.67
2019-04-28T16:27:00.961Z,14.93
2019-04-28T16:29:37.834Z,13.57
2019-04-28T16:32:12.963Z,9.67
2019-04-28T16:34:43.610Z,10.23
2019-04-28T16:37:13.864Z,11.50
2019-04-28T16:39:44.367Z,9.37
2019-04-28T16:42:35.429Z,10.20
2019-04-28T16:45:10.613Z,9.93
2019-04-28T16:47:40.754Z,13.13
2019-04-28T16:50:10.744Z,8.97
2019-04-28T16:52:41.046Z,7.50
2019-04-28T16:55:16.947Z,8.00
2019-04-28T16:58:09.140Z,6.70
2019-04-28T17:00:59.385Z,8.87
2019-04-28T17:03:30.677Z,6.00
2019-04-28T17:06:01.831Z,6.37
2019-04-28T17:08:33.739Z,8.10
2019-04-28T17:11:04.551Z,7.37
2019-04-28T17:13:35.305Z,8.37
2019-04-28T17:16:05.794Z,6.00
2019-04-28T17:18:36.035Z,5.40
2019-04-28T17:21:06.559Z,6.00
2019-04-28T17:23:36.933Z,5.00
2019-04-28T17:26:07.707Z,4.30
2019-04-28T17:28:39.777Z,7.20
2019-04-28T17:31:10.802Z,5.80
2019-04-28T17:33:40.861Z,5.30
2019-04-28T17:36:10.973Z,5.67
2019-04-28T17:38:41.326Z,5.60
2019-04-28T17:41:13.797Z,4.40
2019-04-28T17:43:43.815Z,5.67
2019-04-28T17:46:13.845Z,5.33
2019-04-28T17:48:49.268Z,5.33
2019-04-28T17:51:19.222Z,6.40
2019-04-28T17:53:49.220Z,5.50
2019-04-28T17:56:19.706Z,7.57
2019-04-28T17:58:49.793Z,5.60
2019-04-28T18:01:39.483Z,4.10
2019-04-28T18:04:27.427Z,7.77
2019-04-28T18:07:06.481Z,5.83
2019-04-28T18:09:36.426Z,6.30
2019-04-28T18:12:06.496Z,5.30
2019-04-28T18:14:37.746Z,6.70
2019-04-28T18:17:25.756Z,6.00
2019-04-28T18:19:56.711Z,7.33
2019-04-28T18:22:26.823Z,5.27
2019-04-28T18:24:57.139Z,6.40
2019-04-28T18:27:28.465Z,7.70
2019-04-28T18:29:58.527Z,6.57
2019-04-28T18:32:47.720Z,7.80
2019-04-28T18:35:51.524Z,7.87
2019-04-28T18:38:41.835Z,5.47
2019-04-28T18:41:40.214Z,7.60
2019-04-28T18:44:16.475Z,6.63
2019-04-28T18:46:46.467Z,7.60
2019-04-28T18:49:16.676Z,9.10
2019-04-28T18:51:46.843Z,8.83
2019-04-28T18:54:17.223Z,6.30
2019-04-28T18:56:47.203Z,9.23
2019-04-28T18:59:17.268Z,8.13
2019-04-28T19:02:02.065Z,8.30
2019-04-28T19:04:32.446Z,7.23
2019-04-28T19:07:05.424Z,6.23
2019-04-28T19:09:54.133Z,5.80
2019-04-28T19:12:49.993Z,8.63
2019-04-28T19:15:37.587Z,9.97
2019-04-28T19:18:15.308Z,6.17
2019-04-28T19:20:45.457Z,14.23
2019-04-28T19:23:18.102Z,7.63
2019-04-28T19:25:48.900Z,7.97
2019-04-28T19:28:18.897Z,10.30
2019-04-28T19:30:49.275Z,11.20
2019-04-28T19:33:20.799Z,14.77
2019-04-28T19:35:51.000Z,12.20
2019-04-28T19:38:21.067Z,12.10
2019-04-28T19:40:51.184Z,11.50
2019-04-28T19:43:21.449Z,15.63
2019-04-28T19:45:53.392Z,14.63
2019-04-28T19:48:24.002Z,13.00
2019-04-28T19:50:54.113Z,12.83
2019-04-28T19:53:24.261Z,13.90
2019-04-28T19:56:01.352Z,10.40
2019-04-28T19:58:35.994Z,10.50
2019-04-28T20:01:12.677Z,15.10
2019-04-28T20:03:43.896Z,13.70
2019-04-28T20:06:14.497Z,16.60
2019-04-28T20:08:45.650Z,11.80
2019-04-28T20:11:17.039Z,13.73
2019-04-28T20:13:47.782Z,17.47
2019-04-28T20:16:18.119Z,18.83
2019-04-28T20:18:50.984Z,15.40
2019-04-28T20:21:21.097Z,18.23
2019-04-28T20:23:51.754Z,17.60
2019-04-28T20:26:22.520Z,16.50
2019-04-28T20:28:53.707Z,16.10
2019-04-28T20:31:25.105Z,15.27
2019-04-28T20:33:55.619Z,17.10
2019-04-28T20:36:38.391Z,16.77
2019-04-28T20:39:16.651Z,25.60
2019-04-28T20:41:58.728Z,15.90
2019-04-28T20:44:26.846Z,17.67
2019-04-28T20:46:58.424Z,18.20
2019-04-28T20:49:30.414Z,18.50
2019-04-28T20:52:02.158Z,19.70
2019-04-28T20:54:34.862Z,17.83
2019-04-28T20:57:12.033Z,16.17
2019-04-28T20:59:45.797Z,16.77
2019-04-28T21:02:18.961Z,16.10
2019-04-28T21:04:57.016Z,15.90
2019-04-28T21:07:30.239Z,17.80
2019-04-28T21:10:02.408Z,18.63
2019-04-28T21:12:33.359Z,15.80
2019-04-28T21:15:08.893Z,19.20
2019-04-28T21:17:49.347Z,16.87
2019-04-28T21:20:24.529Z,15.93
2019-04-28T21:23:10.654Z,13.73
2019-04-28T21:25:42.599Z,16.30
2019-04-28T21:28:14.609Z,21.37
2019-04-28T21:30:46.334Z,13.33
2019-04-28T21:33:18.792Z,13.23
2019-04-28T21:35:50.473Z,18.40
2019-04-28T21:38:22.283Z,15.83
2019-04-28T21:40:54.914Z,13.40
2019-04-28T21:44:01.480Z,15.63
2019-04-28T21:46:41.991Z,14.70
2019-04-28T21:49:24.419Z,13.70
2019-04-28T21:51:57.403Z,10.97
2019-04-28T21:54:31.639Z,12.40
2019-04-28T21:57:05.133Z,11.93
2019-04-28T21:59:44.539Z,14.00
2019-04-28T22:02:19.272Z,11.70
2019-04-28T22:04:54.450Z,13.37
2019-04-28T22:07:31.194Z,15.37
2019-04-28T22:10:13.648Z,15.03
2019-04-28T22:13:03.418Z,13.30
2019-04-28T22:15:35.582Z,20.20
2019-04-28T22:18:09.326Z,16.80
2019-04-28T22:20:47.154Z,17.47
2019-04-28T22:23:25.050Z,14.07
2019-04-28T22:25:57.079Z,13.00
2019-04-28T22:28:44.877Z,13.60
2019-04-28T22:31:18.469Z,14.07
2019-04-28T22:33:49.244Z,12.17
2019-04-28T22:36:21.531Z,8.37
2019-04-28T22:38:52.145Z,11.80
2019-04-28T22:41:25.407Z,11.40
2019-04-28T22:43:55.414Z,10.93
2019-04-28T22:46:25.584Z,11.90
2019-04-28T22:48:57.440Z,12.70
2019-04-28T22:51:28.006Z,11.80
2019-04-28T22:53:59.171Z,13.97
2019-04-28T22:56:48.587Z,13.20
2019-04-28T22:59:34.738Z,10.10
2019-04-28T23:02:13.003Z,11.27
2019-04-28T23:04:52.436Z,10.40
2019-04-28T23:07:22.783Z,12.43
2019-04-28T23:09:53.086Z,11.53
2019-04-28T23:12:29.075Z,12.23
2019-04-28T23:14:59.246Z,12.83
2019-04-28T23:17:30.111Z,11.10
2019-04-28T23:20:00.266Z,12.73
2019-04-28T23:22:47.493Z,14.90
2019-04-28T23:25:18.672Z,14.37
2019-04-28T23:27:49.130Z,9.00
2019-04-28T23:30:41.500Z,10.63
2019-04-28T23:33:11.962Z,10.30
2019-04-28T23:35:42.599Z,9.20
2019-04-28T23:38:12.911Z,11.40
2019-04-28T23:41:10.009Z,11.20
2019-04-28T23:43:40.196Z,12.53
2019-04-28T23:46:10.332Z,11.53
2019-04-28T23:48:40.438Z,8.23
2019-04-28T23:51:25.467Z,12.03
2019-04-28T23:54:06.053Z,9.50
2019-04-28T23:56:36.806Z,10.97
2019-04-28T23:59:06.926Z,10.90
